Time;durP1;ratioP1;P1;durP2;ratioP2;P2;SDS_P1;SDS_P2;PMS_P1;PMS_P2;Temp;Humidity;BMP_temperature;BMP_pressure;BME280_temperature;BME280_humidity;BME280_pressure;Samples;Min_cycle;Max_cycle;Signal;HPM_P1;HPM_P2
2022/05/26 00:00:32;;;;;;;26.20;16.23;;;13.30;99.90;;;;;;4994502;28;20038;-88
2022/05/26 00:02:58;;;;;;;23.73;15.65;;;13.30;99.90;;;;;;4991835;28;20093;-88
2022/05/26 00:05:23;;;;;;;19.92;14.35;;;13.30;99.90;;;;;;4992070;28;20046;-87
2022/05/26 00:07:49;;;;;;;23.35;14.70;;;13.30;99.90;;;;;;4991951;28;20052;-88
2022/05/26 00:10:15;;;;;;;19.55;12.57;;;13.30;99.90;;;;;;4991124;28;20034;-88
2022/05/26 00:12:41;;;;;;;17.33;12.27;;;13.20;99.90;;;;;;4992536;28;20045;-87
2022/05/26 00:15:07;;;;;;;17.40;12.07;;;13.30;99.90;;;;;;4978464;28;20191;-88
2022/05/26 00:17:34;;;;;;;16.23;11.50;;;13.40;99.90;;;;;;4994676;28;20057;-87
2022/05/26 00:20:00;;;;;;;17.08;11.15;;;13.40;99.90;;;;;;5009058;28;20394;-88
2022/05/26 00:22:26;;;;;;;16.92;10.90;;;13.40;99.90;;;;;;5003827;28;20059;-87
2022/05/26 00:24:51;;;;;;;14.40;10.93;;;13.40;99.90;;;;;;4968700;28;20130;-87
2022/05/26 00:27:17;;;;;;;15.18;10.93;;;13.40;99.90;;;;;;4970011;28;20144;-86
2022/05/26 00:29:43;;;;;;;16.85;10.88;;;13.40;99.90;;;;;;4985556;28;20146;-86
2022/05/26 00:32:08;;;;;;;13.68;9.82;;;13.30;99.90;;;;;;4966809;28;20042;-86
2022/05/26 00:34:34;;;;;;;14.32;9.18;;;13.40;99.90;;;;;;4965308;28;20096;-86
2022/05/26 00:37:00;;;;;;;14.63;10.45;;;13.50;99.90;;;;;;4960686;28;20126;-86
2022/05/26 00:39:26;;;;;;;12.27;9.90;;;13.40;99.90;;;;;;4976321;28;20081;-86
2022/05/26 00:41:57;;;;;;;14.10;9.93;;;13.40;99.90;;;;;;4976839;28;20420;-87
2022/05/26 00:44:22;;;;;;;15.13;10.25;;;13.50;99.90;;;;;;4976315;28;20124;-86
2022/05/26 00:46:53;;;;;;;19.02;11.57;;;13.50;99.90;;;;;;4959913;28;20050;-86
2022/05/26 00:49:25;;;;;;;16.83;12.38;;;13.50;99.90;;;;;;4959930;28;20220;-87
2022/05/26 00:51:51;;;;;;;24.70;13.68;;;13.50;99.90;;;;;;4976431;28;20042;-87
2022/05/26 00:54:22;;;;;;;24.80;13.63;;;13.50;99.90;;;;;;4959834;28;20204;-87
2022/05/26 00:57:04;;;;;;;27.92;14.73;;;15.00;99.90;;;;;;4959871;28;20096;-87
2022/05/26 00:59:57;;;;;;;27.48;15.75;;;13.60;99.90;;;;;;4960292;28;20054;-87
2022/05/26 01:02:25;;;;;;;28.40;18.13;;;13.60;99.90;;;;;;4975901;28;20046;-87
2022/05/26 01:04:53;;;;;;;35.45;18.13;;;13.60;99.90;;;;;;4960223;28;20122;-87
2022/05/26 01:07:27;;;;;;;32.88;18.65;;;13.60;99.90;;;;;;4960323;28;20042;-86
2022/05/26 01:09:53;;;;;;;35.28;19.90;;;13.60;99.90;;;;;;4944496;28;20121;-86
2022/05/26 01:12:18;;;;;;;38.28;20.30;;;13.60;99.90;;;;;;4961734;28;20169;-86
2022/05/26 01:14:48;;;;;;;43.58;20.67;;;13.60;99.90;;;;;;4955286;28;20129;-87
2022/05/26 01:17:35;;;;;;;43.83;21.63;;;13.60;99.90;;;;;;4969504;28;20042;-87
2022/05/26 01:20:19;;;;;;;42.03;22.25;;;13.70;99.90;;;;;;4965120;28;20050;-87
2022/05/26 01:23:15;;;;;;;46.10;22.85;;;13.70;99.90;;;;;;4976493;28;20056;-86
2022/05/26 01:26:19;;;;;;;46.50;23.23;;;13.70;99.90;;;;;;4979080;28;20050;-88
2022/05/26 01:29:06;;;;;;;41.53;22.58;;;13.70;99.90;;;;;;4996167;28;20101;-88
2022/05/26 01:31:42;;;;;;;46.72;23.15;;;13.70;99.90;;;;;;4996403;28;20042;-88
2022/05/26 01:34:24;;;;;;;49.25;23.48;;;13.70;99.90;;;;;;4999900;28;20046;-87
2022/05/26 01:37:01;;;;;;;56.05;24.48;;;13.70;99.90;;;;;;4998372;28;20068;-88
2022/05/26 01:39:37;;;;;;;46.75;23.23;;;13.70;99.90;;;;;;4996142;28;20085;-87
2022/05/26 01:42:08;;;;;;;58.88;24.75;;;13.70;99.90;;;;;;4982801;28;20077;-87
2022/05/26 01:44:37;;;;;;;56.13;23.30;;;13.70;99.90;;;;;;4993522;28;20049;-87
2022/05/26 01:47:18;;;;;;;48.03;21.80;;;13.70;99.90;;;;;;4999820;28;20084;-87
2022/05/26 01:49:53;;;;;;;54.40;21.77;;;13.60;99.90;;;;;;4968048;28;20424;-87
2022/05/26 01:52:27;;;;;;;49.30;21.73;;;13.60;99.90;;;;;;4984030;28;20370;-87
2022/05/26 01:55:12;;;;;;;52.45;21.35;;;13.60;99.90;;;;;;4983531;28;20130;-87
2022/05/26 01:57:43;;;;;;;57.33;20.80;;;13.60;99.90;;;;;;4998572;28;20446;-87
2022/05/26 02:00:11;;;;;;;56.15;22.83;;;13.60;99.90;;;;;;5014444;28;20492;-90
2022/05/26 02:02:59;;;;;;;57.60;22.95;;;13.50;99.90;;;;;;4982171;28;20545;-88
2022/05/26 02:05:37;;;;;;;61.08;21.02;;;13.50;99.90;;;;;;4983007;28;20042;-88
2022/05/26 02:08:06;;;;;;;61.58;22.80;;;13.50;99.90;;;;;;4982070;28;20351;-87
2022/05/26 02:10:53;;;;;;;58.72;21.98;;;13.40;99.90;;;;;;4965702;28;20119;-87
2022/05/26 02:13:30;;;;;;;61.67;22.13;;;13.40;99.90;;;;;;4984324;28;20037;-88
2022/05/26 02:15:59;;;;;;;55.30;21.73;;;13.40;99.90;;;;;;4967089;28;20064;-88
2022/05/26 02:18:34;;;;;;;60.33;23.23;;;13.50;99.90;;;;;;4997364;28;20153;-88
2022/05/26 02:21:11;;;;;;;63.38;22.38;;;13.50;99.90;;;;;;4982949;28;20408;-88
2022/05/26 02:23:53;;;;;;;58.35;21.58;;;13.50;99.90;;;;;;4965784;28;20052;-88
2022/05/26 02:26:19;;;;;;;66.10;22.63;;;13.50;99.90;;;;;;4967806;28;20059;-87
2022/05/26 02:31:29;;;;;;;60.67;20.50;;;13.60;99.90;;;;;;5000623;28;20327;-87
2022/05/26 02:33:56;;;;;;;63.53;21.02;;;13.60;99.90;;;;;;4994438;28;20057;-88
2022/05/26 02:36:22;;;;;;;67.35;20.80;;;13.60;99.90;;;;;;4988388;28;20350;-88
2022/05/26 02:38:48;;;;;;;64.78;20.08;;;13.60;99.90;;;;;;4997554;28;20046;-87
2022/05/26 02:41:13;;;;;;;61.25;20.70;;;13.60;99.90;;;;;;4981524;28;20045;-89
2022/05/26 02:43:39;;;;;;;69.57;21.65;;;13.60;99.90;;;;;;4981668;28;20429;-87
2022/05/26 02:46:23;;;;;;;62.05;19.77;;;13.60;99.90;;;;;;4985028;28;20069;-87
2022/05/26 02:49:27;;;;;;;47.08;16.88;;;13.60;99.90;;;;;;5017260;28;20042;-89
2022/05/26 02:52:03;;;;;;;56.55;19.15;;;13.70;99.90;;;;;;5018676;28;20064;-88
2022/05/26 02:54:34;;;;;;;46.00;17.48;;;13.70;99.90;;;;;;5003578;28;20124;-88
2022/05/26 02:57:10;;;;;;;59.97;18.85;;;13.60;99.90;;;;;;5016630;28;20096;-88
2022/05/26 03:00:21;;;;;;;56.17;18.20;;;13.60;99.90;;;;;;5000410;28;20134;-88
2022/05/26 03:03:04;;;;;;;56.65;17.75;;;13.60;99.90;;;;;;4993541;28;20053;-87
2022/05/26 03:05:57;;;;;;;47.90;17.05;;;13.60;99.90;;;;;;4985270;28;20591;-87
2022/05/26 03:08:24;;;;;;;56.70;15.85;;;13.60;99.90;;;;;;4986460;28;20053;-87
2022/05/26 03:10:51;;;;;;;54.60;16.23;;;13.60;99.90;;;;;;4983790;28;20038;-88
2022/05/26 03:13:17;;;;;;;61.45;16.67;;;13.60;99.90;;;;;;5000271;28;20049;-87
2022/05/26 03:15:43;;;;;;;56.17;16.63;;;13.60;99.90;;;;;;4988959;28;20465;-87
2022/05/26 03:18:09;;;;;;;65.95;16.02;;;13.60;99.90;;;;;;4984714;28;20101;-87
2022/05/26 03:20:36;;;;;;;46.00;14.63;;;13.60;99.90;;;;;;5000127;28;20393;-88
2022/05/26 03:23:02;;;;;;;52.88;15.15;;;13.60;99.90;;;;;;4999604;28;20049;-87
2022/05/26 03:25:27;;;;;;;57.03;15.38;;;13.60;99.90;;;;;;4967844;28;20043;-88
2022/05/26 03:27:53;;;;;;;60.17;15.32;;;13.60;99.90;;;;;;4984290;28;20123;-88
2022/05/26 03:30:19;;;;;;;50.22;14.63;;;13.50;99.90;;;;;;4983677;28;20460;-87
2022/05/26 03:32:46;;;;;;;47.67;14.27;;;13.50;99.90;;;;;;4999782;28;20392;-88
2022/05/26 03:40:46;;;;;;;51.42;13.73;;;13.50;99.90;;;;;;5002186;28;20049;-88
2022/05/26 03:43:12;;;;;;;51.42;13.30;;;13.40;99.90;;;;;;4999715;28;20421;-87
2022/05/26 03:45:38;;;;;;;41.05;12.02;;;13.40;99.90;;;;;;4982969;28;20050;-88
2022/05/26 03:48:04;;;;;;;41.17;11.65;;;13.50;99.90;;;;;;4984149;28;20048;-87
2022/05/26 03:50:30;;;;;;;48.13;12.23;;;13.40;99.90;;;;;;5009813;28;20051;-88
2022/05/26 03:52:56;;;;;;;44.25;11.20;;;13.40;99.90;;;;;;4998650;28;20041;-87
2022/05/26 03:55:22;;;;;;;42.08;10.50;;;13.40;99.90;;;;;;5009360;28;20068;-87
2022/05/26 03:57:48;;;;;;;39.15;10.32;;;13.40;99.90;;;;;;4967922;28;20333;-88
2022/05/26 04:00:15;;;;;;;38.65;9.20;;;13.40;99.90;;;;;;4982789;28;20042;-87
2022/05/26 04:02:41;;;;;;;33.20;9.40;;;13.40;99.90;;;;;;4999438;28;20054;-87
2022/05/26 04:05:07;;;;;;;32.33;8.50;;;13.40;99.90;;;;;;4999664;28;20083;-87
2022/05/26 04:07:34;;;;;;;29.60;7.85;;;13.40;99.90;;;;;;4983304;28;20045;-87
2022/05/26 04:10:02;;;;;;;34.85;8.07;;;13.40;99.90;;;;;;4986799;28;20465;-87
2022/05/26 04:12:27;;;;;;;33.85;8.65;;;13.40;99.90;;;;;;4986671;28;20045;-87
2022/05/26 04:14:53;;;;;;;31.45;8.43;;;13.40;99.90;;;;;;4999668;28;20107;-88
2022/05/26 04:17:19;;;;;;;36.42;8.90;;;13.40;99.90;;;;;;4982289;28;20045;-87
2022/05/26 04:19:44;;;;;;;31.85;8.15;;;13.60;99.90;;;;;;4998671;28;20045;-88
2022/05/26 04:22:17;;;;;;;32.90;8.95;;;13.60;99.90;;;;;;4982727;28;20059;-87
2022/05/26 04:24:44;;;;;;;35.00;7.65;;;13.70;99.90;;;;;;4984927;28;20045;-88
2022/05/26 04:27:10;;;;;;;26.52;7.07;;;13.70;99.90;;;;;;5015714;28;20353;-87
2022/05/26 04:29:35;;;;;;;26.45;6.65;;;13.70;99.90;;;;;;4982365;28;20037;-88
2022/05/26 04:32:02;;;;;;;23.75;6.28;;;13.70;99.90;;;;;;4982088;28;20456;-87
2022/05/26 04:34:27;;;;;;;22.30;6.00;;;13.80;99.90;;;;;;4982546;28;20380;-88
2022/05/26 04:36:53;;;;;;;24.75;5.93;;;13.90;99.90;;;;;;4998418;28;20057;-88
2022/05/26 04:39:19;;;;;;;26.98;6.00;;;14.10;99.90;;;;;;4998364;28;20053;-87
2022/05/26 04:41:44;;;;;;;22.63;5.97;;;14.10;99.90;;;;;;4982649;28;20041;-87
2022/05/26 04:44:14;;;;;;;32.85;6.18;;;14.40;99.90;;;;;;4965673;28;20115;-88
2022/05/26 04:46:40;;;;;;;23.50;5.75;;;14.50;99.90;;;;;;4983146;28;20089;-87
2022/05/26 04:49:06;;;;;;;25.65;6.07;;;14.60;99.90;;;;;;4982129;28;20071;-88
2022/05/26 04:51:34;;;;;;;29.40;6.60;;;15.00;99.90;;;;;;4998122;28;20057;-88
2022/05/26 04:54:00;;;;;;;22.70;5.75;;;15.50;99.90;;;;;;4982718;28;20353;-88
2022/05/26 04:56:26;;;;;;;21.40;6.20;;;16.00;99.90;;;;;;5015708;28;20493;-87
2022/05/26 04:58:52;;;;;;;26.33;5.68;;;16.50;99.90;;;;;;4966969;28;20073;-88
2022/05/26 05:01:19;;;;;;;23.05;5.10;;;16.90;99.90;;;;;;5019405;28;20048;-88
2022/05/26 05:03:45;;;;;;;19.42;4.40;;;16.90;99.90;;;;;;5002526;28;20497;-87
2022/05/26 05:06:10;;;;;;;25.73;5.15;;;17.60;99.90;;;;;;4986769;28;20132;-89
2022/05/26 05:08:36;;;;;;;17.40;4.50;;;17.70;99.90;;;;;;4972326;28;20045;-88
2022/05/26 05:11:02;;;;;;;20.20;4.07;;;17.90;99.90;;;;;;4992837;28;20080;-89
2022/05/26 05:13:28;;;;;;;16.48;4.05;;;17.90;99.90;;;;;;5018351;28;20037;-87
2022/05/26 05:15:58;;;;;;;18.77;4.20;;;18.00;99.90;;;;;;4989282;28;20465;-88
2022/05/26 05:18:24;;;;;;;19.90;4.78;;;18.50;99.90;;;;;;4986822;28;20048;-88
2022/05/26 05:20:50;;;;;;;17.63;3.80;;;18.60;99.90;;;;;;4985521;28;20037;-87
2022/05/26 05:23:15;;;;;;;17.17;3.65;;;18.70;99.90;;;;;;4986017;28;20052;-88
2022/05/26 05:25:45;;;;;;;14.70;3.88;;;19.10;99.90;;;;;;5003034;28;20132;-88
2022/05/26 05:28:32;;;;;;;13.15;3.10;;;18.80;99.90;;;;;;4972284;28;20045;-89
2022/05/26 05:31:03;;;;;;;15.82;3.58;;;19.20;99.90;;;;;;5005214;28;20422;-88
2022/05/26 05:33:34;;;;;;;13.43;2.97;;;19.50;99.90;;;;;;4985821;28;20048;-88
2022/05/26 05:36:06;;;;;;;11.55;2.78;;;19.00;99.90;;;;;;4986292;28;20049;-88
2022/05/26 05:38:34;;;;;;;13.85;3.25;;;19.00;99.90;;;;;;4985784;28;20105;-87
2022/05/26 05:41:01;;;;;;;9.02;2.30;;;19.30;99.90;;;;;;4985810;28;20111;-87
2022/05/26 05:43:28;;;;;;;7.95;2.42;;;19.10;99.90;;;;;;4986340;28;20045;-88
2022/05/26 05:45:54;;;;;;;9.25;2.80;;;19.10;99.90;;;;;;4985011;28;20088;-88
2022/05/26 05:48:21;;;;;;;8.90;2.15;;;19.40;99.90;;;;;;5001229;28;20091;-88
2022/05/26 05:50:47;;;;;;;8.40;2.30;;;20.00;99.90;;;;;;5017902;28;20231;-88
2022/05/26 05:53:15;;;;;;;11.13;2.53;;;20.20;99.90;;;;;;4985096;28;20120;-89
2022/05/26 05:55:41;;;;;;;9.07;2.17;;;20.60;99.90;;;;;;4989226;28;20057;-88
2022/05/26 05:58:08;;;;;;;10.38;3.22;;;19.50;99.90;;;;;;5006136;28;20045;-88
2022/05/26 06:00:35;;;;;;;9.68;2.22;;;20.50;99.90;;;;;;5002428;28;20053;-88
2022/05/26 06:03:01;;;;;;;9.00;2.22;;;19.30;99.90;;;;;;4985015;28;20053;-88
2022/05/26 06:05:27;;;;;;;7.18;2.30;;;19.00;99.90;;;;;;4985127;28;20052;-89
2022/05/26 06:07:52;;;;;;;9.77;2.28;;;18.40;99.90;;;;;;4985586;28;20103;-88
2022/05/26 06:10:18;;;;;;;6.03;1.90;;;18.10;99.90;;;;;;4983807;28;20190;-89
2022/05/26 06:12:45;;;;;;;8.70;2.10;;;17.90;99.90;;;;;;5017344;28;20037;-88
2022/05/26 06:15:11;;;;;;;7.68;2.00;;;17.20;99.90;;;;;;5001609;28;20126;-87
2022/05/26 06:17:37;;;;;;;7.55;1.90;;;16.70;99.90;;;;;;5017423;28;20461;-89
2022/05/26 06:20:04;;;;;;;7.20;1.98;;;17.30;99.90;;;;;;5000916;28;20072;-88
2022/05/26 06:22:30;;;;;;;6.65;1.88;;;18.00;99.90;;;;;;5000961;28;20046;-88
2022/05/26 06:24:56;;;;;;;6.25;1.73;;;18.80;99.90;;;;;;4985713;28;20155;-89
2022/05/26 06:30:11;;;;;;;7.75;2.08;;;20.40;99.90;;;;;;5025215;28;20053;-89
2022/05/26 06:38:15;;;;;;;6.43;1.60;;;21.40;99.90;;;;;;5003717;28;20139;-89
2022/05/26 06:40:41;;;;;;;8.30;1.70;;;20.80;99.90;;;;;;4984977;28;20476;-89
2022/05/26 06:43:07;;;;;;;7.45;1.40;;;20.20;99.90;;;;;;4985513;28;20081;-89
2022/05/26 06:45:32;;;;;;;7.70;1.30;;;21.20;99.90;;;;;;4984627;28;20053;-88
2022/05/26 06:47:58;;;;;;;6.88;1.63;;;20.90;99.90;;;;;;5005340;28;20046;-89
2022/05/26 06:50:24;;;;;;;6.10;1.75;;;20.50;99.90;;;;;;5018636;28;20044;-89
2022/05/26 06:52:50;;;;;;;5.20;1.27;;;19.70;99.90;;;;;;4968176;28;20052;-89
2022/05/26 06:55:16;;;;;;;8.18;1.42;;;19.80;99.90;;;;;;5000624;28;20037;-90
2022/05/26 06:57:42;;;;;;;6.55;1.48;;;19.50;99.90;;;;;;4968594;28;20136;-89
2022/05/26 07:00:08;;;;;;;3.80;1.40;;;19.00;99.90;;;;;;4984095;28;20053;-89
2022/05/26 07:02:34;;;;;;;6.22;1.20;;;18.00;99.90;;;;;;5016510;28;20049;-89
2022/05/26 07:05:01;;;;;;;5.68;1.45;;;18.30;99.90;;;;;;5000086;28;20111;-89
2022/05/26 07:07:27;;;;;;;7.57;1.67;;;17.80;99.90;;;;;;5000472;28;20076;-88
2022/05/26 07:09:54;;;;;;;5.75;1.50;;;17.90;99.90;;;;;;4968511;28;20145;-89
2022/05/26 07:12:21;;;;;;;6.03;1.23;;;17.30;99.90;;;;;;5000416;28;20052;-89
2022/05/26 07:14:47;;;;;;;3.58;1.30;;;17.90;99.90;;;;;;4970904;28;20132;-90
2022/05/26 07:17:13;;;;;;;4.40;1.33;;;18.00;99.90;;;;;;4991650;28;20072;-90
2022/05/26 07:19:39;;;;;;;4.00;1.35;;;17.80;99.90;;;;;;5011187;28;20060;-91
2022/05/26 07:22:04;;;;;;;5.43;1.60;;;18.40;99.90;;;;;;5008715;28;20049;-90
2022/05/26 07:24:30;;;;;;;4.45;1.35;;;18.30;99.90;;;;;;4985695;28;20084;-91
2022/05/26 07:26:56;;;;;;;3.88;1.30;;;18.90;99.90;;;;;;5001083;28;20048;-92
2022/05/26 07:29:22;;;;;;;4.93;1.20;;;18.80;99.90;;;;;;5017324;28;20420;-93
2022/05/26 07:31:48;;;;;;;5.25;1.10;;;19.20;99.90;;;;;;4984231;28;20153;-92
2022/05/26 07:34:13;;;;;;;3.70;1.30;;;19.10;99.90;;;;;;4984448;28;20092;-90
2022/05/26 07:42:08;;;;;;;;;;;18.60;99.90;;;;;;5004804;28;20547;-88
2022/05/26 07:44:35;;;;;;;2.67;1.00;;;19.30;99.90;;;;;;4988912;28;19917;-91
2022/05/26 07:47:05;;;;;;;8.55;1.42;;;19.70;99.90;;;;;;4969154;28;20068;-90
2022/05/26 07:49:43;;;;;;;5.65;1.27;;;19.50;99.90;;;;;;4990341;28;20054;-91
2022/05/26 07:52:11;;;;;;;6.78;1.20;;;19.40;99.90;;;;;;4985036;28;20064;-91
2022/05/26 07:54:38;;;;;;;6.15;1.20;;;19.50;99.90;;;;;;4965096;28;20053;-92
2022/05/26 07:57:04;;;;;;;4.97;1.38;;;19.40;99.90;;;;;;4961449;28;20080;-91
2022/05/26 07:59:30;;;;;;;2.30;1.10;;;19.70;99.90;;;;;;4961922;28;20061;-91
2022/05/26 08:01:55;;;;;;;4.10;0.95;;;20.50;99.90;;;;;;4977466;28;20102;-91
2022/05/26 08:04:21;;;;;;;6.72;1.90;;;20.40;99.90;;;;;;4978465;28;20042;-91
2022/05/26 08:06:47;;;;;;;5.53;1.35;;;20.30;99.90;;;;;;4990913;28;20050;-92
2022/05/26 08:09:17;;;;;;;4.30;1.67;;;20.20;99.90;;;;;;4966801;28;20034;-92
2022/05/26 08:11:43;;;;;;;6.25;1.52;;;20.20;99.90;;;;;;4946027;28;20096;-91
2022/05/26 08:14:09;;;;;;;4.90;1.00;;;19.60;99.90;;;;;;4977112;28;20042;-92
2022/05/26 08:16:35;;;;;;;4.35;1.00;;;20.50;99.90;;;;;;4961828;28;20050;-94
2022/05/26 08:19:01;;;;;;;4.10;1.00;;;21.00;99.90;;;;;;4961477;28;20443;-94
2022/05/26 08:21:29;;;;;;;4.88;1.15;;;21.50;99.90;;;;;;4961297;28;20141;-93
2022/05/26 08:23:54;;;;;;;4.80;1.70;;;21.20;99.90;;;;;;4993032;28;20050;-92
2022/05/26 08:26:20;;;;;;;3.83;1.10;;;20.40;99.90;;;;;;4961203;28;20056;-91
2022/05/26 08:28:46;;;;;;;5.57;1.20;;;20.80;99.90;;;;;;4976732;28;20116;-92
2022/05/26 08:31:13;;;;;;;3.92;1.10;;;21.50;99.90;;;;;;4960223;28;20098;-92
2022/05/26 08:33:39;;;;;;;4.35;1.23;;;20.90;99.90;;;;;;4943940;28;20074;-91
2022/05/26 08:36:10;;;;;;;3.60;1.10;;;20.50;99.90;;;;;;4959896;28;20056;-92
2022/05/26 08:38:36;;;;;;;4.18;1.10;;;20.90;99.90;;;;;;4961317;28;20046;-92
2022/05/26 08:41:02;;;;;;;3.45;1.10;;;20.10;99.90;;;;;;4961211;28;20421;-91
2022/05/26 08:44:06;;;;;;;3.47;1.00;;;19.40;99.90;;;;;;4977571;28;20124;-89
2022/05/26 08:46:44;;;;;;;5.68;1.17;;;19.00;99.90;;;;;;4999554;28;20037;-91
2022/05/26 08:49:20;;;;;;;4.15;1.23;;;19.30;99.90;;;;;;4999836;28;20046;-91
2022/05/26 08:51:58;;;;;;;3.85;1.08;;;19.70;99.90;;;;;;4999043;28;20042;-90
2022/05/26 08:54:49;;;;;;;4.07;1.25;;;20.00;99.90;;;;;;4983572;28;20404;-90
2022/05/26 08:57:17;;;;;;;4.65;1.17;;;19.70;99.90;;;;;;4998756;28;20084;-92
2022/05/26 08:59:44;;;;;;;6.22;1.23;;;19.50;99.90;;;;;;4998700;28;20076;-89
2022/05/26 09:02:19;;;;;;;6.55;1.35;;;20.00;99.90;;;;;;4982877;28;20049;-91
2022/05/26 09:04:45;;;;;;;3.42;1.20;;;19.90;99.90;;;;;;4985842;28;20095;-95
2022/05/26 09:12:57;;;;;;;4.78;1.00;;;20.00;99.90;;;;;;4994550;28;20099;-91
2022/05/26 09:15:24;;;;;;;4.18;1.23;;;20.10;99.90;;;;;;4985731;28;20038;-90
2022/05/26 09:17:49;;;;;;;3.28;1.00;;;20.50;99.90;;;;;;4982729;28;20102;-91
2022/05/26 09:20:41;;;;;;;4.75;1.10;;;20.30;99.90;;;;;;4999096;28;20140;-93
2022/05/26 09:23:23;;;;;;;3.95;1.02;;;19.90;99.90;;;;;;4976171;28;20041;-93
2022/05/26 09:25:52;;;;;;;4.95;1.20;;;20.20;99.90;;;;;;5003480;28;20037;-91
2022/05/26 09:29:00;;;;;;;3.08;0.93;;;20.00;99.90;;;;;;5016511;28;20349;-93
2022/05/26 09:31:28;;;;;;;5.03;0.93;;;20.10;99.90;;;;;;4970448;28;20365;-87
2022/05/26 09:34:32;;;;;;;3.28;1.00;;;21.10;99.90;;;;;;5014367;28;20038;-89
2022/05/26 09:37:00;;;;;;;3.65;0.82;;;21.80;99.90;;;;;;5016769;28;20049;-91
2022/05/26 09:39:30;;;;;;;3.03;0.90;;;21.10;99.90;;;;;;5004254;28;20101;-91
2022/05/26 09:41:57;;;;;;;3.03;1.05;;;21.30;99.90;;;;;;5000669;28;20065;-89
2022/05/26 09:44:28;;;;;;;4.10;0.80;;;21.50;99.90;;;;;;4966350;28;20141;-88
2022/05/26 09:46:54;;;;;;;4.32;0.98;;;22.00;99.90;;;;;;5018768;28;20060;-92
2022/05/26 09:49:25;;;;;;;2.38;0.88;;;22.00;99.90;;;;;;5002249;28;20037;-92
2022/05/26 09:51:51;;;;;;;2.17;0.80;;;21.60;99.90;;;;;;4985532;28;20056;-89
2022/05/26 09:54:24;;;;;;;4.47;1.00;;;22.00;99.90;;;;;;4986017;28;20041;-90
2022/05/26 09:56:50;;;;;;;3.97;1.10;;;22.60;99.90;;;;;;5018299;28;20053;-91
2022/05/26 09:59:29;;;;;;;3.13;1.00;;;22.20;99.90;;;;;;4985306;28;20059;-91
2022/05/26 10:01:58;;;;;;;3.97;1.20;;;22.70;99.90;;;;;;5002288;28;20385;-92
2022/05/26 10:04:49;;;;;;;2.13;0.82;;;22.70;99.90;;;;;;5017892;28;20128;-91
2022/05/26 10:07:20;;;;;;;5.53;1.40;;;22.40;99.90;;;;;;5018744;28;20056;-93
2022/05/26 10:09:58;;;;;;;5.68;1.17;;;21.20;99.90;;;;;;5003282;28;20102;-93
2022/05/26 10:13:02;;;;;;;5.18;1.40;;;22.00;99.90;;;;;;4985940;28;20457;-94
2022/05/26 10:15:56;;;;;;;3.35;1.52;;;22.00;99.90;;;;;;4992912;28;20045;-92
2022/05/26 10:18:43;;;;;;;3.45;1.20;;;21.90;99.90;;;;;;5004688;28;20082;-92
2022/05/26 10:21:27;;;;;;;5.57;1.23;;;22.20;99.90;;;;;;5002495;28;20088;-93
2022/05/26 10:24:20;;;;;;;3.70;1.15;;;22.10;99.90;;;;;;5019992;28;20107;-93
2022/05/26 10:26:54;;;;;;;4.95;1.20;;;20.90;99.90;;;;;;5007131;28;20041;-96
2022/05/26 10:29:47;;;;;;;5.03;1.13;;;21.20;99.90;;;;;;5007907;28;20085;-91
2022/05/26 10:32:41;;;;;;;3.88;1.38;;;20.50;99.90;;;;;;5021349;28;20362;-91
2022/05/26 10:35:22;;;;;;;5.20;1.00;;;20.20;99.90;;;;;;4995248;28;20466;-90
2022/05/26 10:38:07;;;;;;;4.50;1.02;;;19.80;99.90;;;;;;4986766;28;20037;-90
2022/05/26 10:40:55;;;;;;;4.35;0.80;;;19.50;99.90;;;;;;5017617;28;20128;-89
2022/05/26 10:43:27;;;;;;;3.53;1.00;;;19.30;99.90;;;;;;4985563;28;20083;-89
2022/05/26 10:45:53;;;;;;;4.00;1.20;;;19.00;99.90;;;;;;5017317;28;20053;-91
2022/05/26 10:48:21;;;;;;;5.82;1.13;;;19.10;99.90;;;;;;4989452;28;20377;-91
2022/05/26 10:51:15;;;;;;;3.90;1.20;;;19.60;99.90;;;;;;5026551;28;20077;-90
2022/05/26 10:53:49;;;;;;;3.30;1.43;;;20.40;99.90;;;;;;5004232;28;20168;-91
2022/05/26 10:56:29;;;;;;;3.63;1.10;;;20.10;99.90;;;;;;4984326;28;20038;-91
2022/05/26 10:59:01;;;;;;;4.75;1.63;;;20.00;99.90;;;;;;4969883;28;20128;-88
2022/05/26 11:01:35;;;;;;;3.00;1.30;;;19.90;99.90;;;;;;4985900;28;20056;-91
2022/05/26 11:04:22;;;;;;;3.40;1.10;;;19.70;99.90;;;;;;4986315;28;20061;-93
2022/05/26 11:06:47;;;;;;;3.28;1.13;;;19.30;99.90;;;;;;5017470;28;20460;-91
2022/05/26 11:09:18;;;;;;;4.28;1.00;;;19.90;99.90;;;;;;4984596;28;20060;-91
2022/05/26 11:11:49;;;;;;;4.28;1.40;;;20.20;99.90;;;;;;4984879;28;20049;-92
2022/05/26 11:17:44;;;;;;;5.00;1.30;;;19.80;99.90;;;;;;5005820;28;20492;-94
2022/05/26 11:20:20;;;;;;;5.18;1.40;;;19.40;99.90;;;;;;5018776;28;20509;-94
2022/05/26 11:22:51;;;;;;;4.47;1.50;;;19.60;99.90;;;;;;5001694;28;20064;-92
2022/05/26 11:25:22;;;;;;;5.47;1.45;;;19.30;99.90;;;;;;4982327;28;20076;-93
2022/05/26 11:27:58;;;;;;;4.65;1.60;;;19.00;99.90;;;;;;4968885;28;20053;-93
2022/05/26 11:36:38;;;;;;;4.53;1.90;;;19.00;99.90;;;;;;5003257;28;20046;-93
2022/05/26 11:39:07;;;;;;;2.90;1.60;;;17.40;99.90;;;;;;4988828;28;20099;-96
2022/05/26 11:41:50;;;;;;;5.15;1.60;;;18.40;99.90;;;;;;4991363;28;20042;-95
2022/05/26 11:44:34;;;;;;;6.18;1.90;;;18.70;99.90;;;;;;4982485;28;20049;-96
2022/05/26 11:47:31;;;;;;;;;;;;;;;;;;;;;
2022/05/26 11:50:20;;;;;;;4.85;1.60;;;19.30;99.90;;;;;;5017454;28;20046;-93
2022/05/26 11:53:06;;;;;;;4.55;1.70;;;19.10;99.90;;;;;;4990262;28;20071;-94
2022/05/26 11:55:47;;;;;;;6.30;1.92;;;19.00;99.90;;;;;;4990223;28;20049;-92
2022/05/26 11:58:44;;;;;;;4.32;2.13;;;18.90;99.90;;;;;;4983187;28;20053;-93
2022/05/26 12:01:14;;;;;;;6.45;1.90;;;18.70;99.90;;;;;;4982472;28;20156;-95
2022/05/26 12:04:05;;;;;;;8.20;1.58;;;19.10;99.90;;;;;;4987139;28;20133;-94
2022/05/26 12:06:31;;;;;;;5.53;1.70;;;18.90;99.90;;;;;;4986239;28;20437;-94
2022/05/26 12:09:03;;;;;;;6.78;1.77;;;18.70;99.90;;;;;;4999840;28;20077;-93
2022/05/26 12:12:30;;;;;;;4.45;1.40;;;18.80;99.90;;;;;;4973880;28;20041;-93
2022/05/26 12:15:06;;;;;;;4.13;1.27;;;18.80;99.90;;;;;;5018335;28;20033;-93
2022/05/26 12:17:49;;;;;;;5.70;1.50;;;19.10;99.90;;;;;;5000797;28;20105;-92
2022/05/26 12:20:15;;;;;;;5.35;1.40;;;19.30;99.90;;;;;;4986357;28;20042;-89
2022/05/26 12:22:41;;;;;;;5.90;1.73;;;19.80;99.90;;;;;;5032064;28;20068;-90
2022/05/26 12:25:23;;;;;;;6.68;1.80;;;19.80;99.90;;;;;;5033334;28;20048;-89
2022/05/26 12:27:51;;;;;;;6.18;1.33;;;19.80;99.90;;;;;;5018750;28;20109;-89
2022/05/26 12:30:39;;;;;;;4.40;1.42;;;19.90;99.90;;;;;;5034289;28;20041;-89
2022/05/26 12:33:17;;;;;;;4.53;1.40;;;19.80;99.90;;;;;;5031005;28;20049;-90
2022/05/26 12:36:11;;;;;;;6.90;1.35;;;19.40;99.90;;;;;;5031025;28;20045;-91
2022/05/26 12:38:59;;;;;;;5.60;1.17;;;19.40;99.90;;;;;;5030752;28;20052;-89
2022/05/26 12:41:37;;;;;;;4.70;1.40;;;19.60;99.90;;;;;;5014031;28;20064;-90
2022/05/26 12:44:27;;;;;;;5.05;1.80;;;19.50;99.90;;;;;;5013205;28;20045;-91
2022/05/26 12:47:36;;;;;;;2.17;1.10;;;19.30;99.90;;;;;;5030546;28;20099;-89
2022/05/26 12:50:02;;;;;;;4.35;1.40;;;19.20;99.90;;;;;;5031937;28;20065;-90
2022/05/26 12:52:37;;;;;;;4.80;1.33;;;19.10;99.90;;;;;;5033355;28;20033;-90
2022/05/26 12:55:12;;;;;;;5.53;1.40;;;19.20;99.90;;;;;;5017945;28;20084;-90
2022/05/26 12:57:42;;;;;;;4.28;1.15;;;19.30;99.90;;;;;;5000445;28;20054;-92
2022/05/26 13:00:28;;;;;;;4.32;1.50;;;19.30;99.90;;;;;;4992164;28;20057;-91
2022/05/26 13:03:24;;;;;;;4.80;1.70;;;19.30;99.90;;;;;;5015360;28;20068;-93
2022/05/26 13:06:02;;;;;;;4.20;1.50;;;19.20;99.90;;;;;;4980323;28;20049;-88
2022/05/26 13:08:42;;;;;;;3.33;1.33;;;19.20;99.90;;;;;;5020629;28;20128;-91
2022/05/26 13:11:11;;;;;;;6.07;1.20;;;19.30;99.90;;;;;;4986827;28;20088;-91
2022/05/26 13:13:43;;;;;;;5.95;1.50;;;19.40;99.90;;;;;;4984441;28;20445;-89
2022/05/26 13:16:35;;;;;;;6.10;1.50;;;19.50;99.90;;;;;;4983551;28;20056;-92
2022/05/26 13:19:15;;;;;;;3.97;1.38;;;19.10;99.90;;;;;;4998528;28;20061;-92
2022/05/26 13:21:49;;;;;;;4.97;2.13;;;19.60;99.90;;;;;;4972852;28;20049;-91
2022/05/26 13:24:24;;;;;;;2.83;1.23;;;19.60;99.90;;;;;;4987757;28;20046;-91
2022/05/26 13:26:57;;;;;;;4.47;1.33;;;19.60;99.90;;;;;;4986857;28;20061;-88
2022/05/26 13:29:25;;;;;;;6.40;1.43;;;19.60;99.90;;;;;;4972059;28;20091;-93
2022/05/26 13:34:48;;;;;;;5.85;1.65;;;19.30;99.90;;;;;;4991150;28;20112;-88
2022/05/26 13:37:18;;;;;;;8.00;1.80;;;19.30;99.90;;;;;;5003244;28;20111;-89
2022/05/26 13:39:43;;;;;;;5.78;1.40;;;19.20;99.90;;;;;;5003161;28;20042;-89
2022/05/26 13:42:12;;;;;;;6.97;1.92;;;19.00;99.90;;;;;;4986540;28;20042;-92
2022/05/26 13:44:40;;;;;;;6.82;1.75;;;19.20;99.90;;;;;;4987457;28;20111;-90
2022/05/26 13:47:08;;;;;;;4.40;1.27;;;18.80;99.90;;;;;;4971865;28;20075;-89